createdAt,value
2018-10-02T00:00:41.092Z,4.43
2018-10-02T00:03:08.268Z,4.87
2018-10-02T00:05:35.404Z,2.10
2018-10-02T00:08:02.537Z,9.20
2018-10-02T00:10:29.724Z,2.73
2018-10-02T00:13:02.771Z,7.10
2018-10-02T00:15:29.960Z,4.60
2018-10-02T00:17:57.130Z,4.47
2018-10-02T00:20:24.286Z,2.60
2018-10-02T00:22:51.549Z,1.57
2018-10-02T00:25:18.732Z,4.37
2018-10-02T00:27:45.892Z,3.07
2018-10-02T00:30:13.090Z,3.00
2018-10-02T00:32:40.247Z,3.10
2018-10-02T00:35:07.450Z,4.17
2018-10-02T00:37:34.640Z,3.93
2018-10-02T00:40:01.804Z,3.13
2018-10-02T00:42:28.990Z,5.07
2018-10-02T00:44:56.184Z,2.83
2018-10-02T00:47:23.324Z,4.57
2018-10-02T00:49:50.600Z,3.77
2018-10-02T00:52:17.793Z,6.43
2018-10-02T00:54:44.921Z,2.80
2018-10-02T00:57:12.064Z,5.27
2018-10-02T00:59:39.327Z,5.80
2018-10-02T01:02:06.485Z,5.23
2018-10-02T01:04:33.663Z,6.30
2018-10-02T01:07:00.855Z,5.67
2018-10-02T01:09:27.987Z,6.20
2018-10-02T01:11:55.100Z,4.60
2018-10-02T01:14:22.322Z,6.07
2018-10-02T01:16:49.435Z,4.33
2018-10-02T01:19:16.557Z,4.50
2018-10-02T01:21:43.735Z,5.37
2018-10-02T01:24:10.899Z,6.87
2018-10-02T01:26:38.105Z,6.13
2018-10-02T01:29:05.465Z,5.47
2018-10-02T01:31:32.632Z,4.80
2018-10-02T01:33:59.787Z,6.57
2018-10-02T01:36:27.001Z,4.23
2018-10-02T01:38:54.192Z,3.67
2018-10-02T01:41:21.356Z,4.20
2018-10-02T01:43:48.551Z,8.60
2018-10-02T01:46:15.715Z,7.87
2018-10-02T01:48:42.909Z,3.50
2018-10-02T01:51:10.111Z,5.10
2018-10-02T01:53:37.255Z,4.93
2018-10-02T01:56:04.433Z,9.33
2018-10-02T01:58:31.635Z,4.03
2018-10-02T02:00:58.804Z,3.27
2018-10-02T02:03:25.941Z,5.60
2018-10-02T02:05:53.141Z,5.17
2018-10-02T02:08:20.355Z,4.30
2018-10-02T02:10:47.493Z,3.33
2018-10-02T02:13:14.720Z,5.10
2018-10-02T02:15:41.962Z,7.90
2018-10-02T02:18:09.116Z,6.20
2018-10-02T02:20:36.348Z,4.80
2018-10-02T02:23:03.500Z,4.57
2018-10-02T02:25:30.686Z,10.70
2018-10-02T02:27:57.921Z,4.17
2018-10-02T02:30:25.077Z,5.10
2018-10-02T02:32:52.264Z,6.47
2018-10-02T02:35:19.559Z,5.17
2018-10-02T02:37:46.786Z,5.70
2018-10-02T02:40:13.972Z,5.00
2018-10-02T02:42:41.176Z,5.63
2018-10-02T02:45:08.508Z,5.57
2018-10-02T02:47:41.504Z,8.03
2018-10-02T02:50:14.487Z,5.37
2018-10-02T02:52:59.407Z,4.43
2018-10-02T02:55:26.866Z,3.87
2018-10-02T02:57:54.011Z,5.63
2018-10-02T03:00:21.228Z,4.77
2018-10-02T03:02:48.383Z,5.53
2018-10-02T03:05:15.541Z,5.83
2018-10-02T03:07:42.827Z,4.77
2018-10-02T03:10:09.974Z,6.60
2018-10-02T03:12:37.121Z,5.73
2018-10-02T03:15:04.464Z,5.03
2018-10-02T03:17:31.671Z,5.00
2018-10-02T03:19:58.840Z,7.07
2018-10-02T03:22:26.020Z,9.40
2018-10-02T03:24:53.180Z,11.87
2018-10-02T03:27:20.332Z,5.37
2018-10-02T03:29:47.543Z,9.23
2018-10-02T03:32:14.753Z,4.50
2018-10-02T03:34:41.885Z,6.53
2018-10-02T03:37:09.088Z,4.77
2018-10-02T03:39:36.411Z,7.90
2018-10-02T03:42:03.613Z,11.40
2018-10-02T03:44:30.804Z,5.17
2018-10-02T03:46:57.940Z,6.90
2018-10-02T03:49:25.084Z,8.33
2018-10-02T03:51:52.892Z,4.30
2018-10-02T03:54:20.012Z,6.27
2018-10-02T03:56:47.264Z,5.57
2018-10-02T03:59:14.474Z,6.27
2018-10-02T04:01:41.624Z,7.40
2018-10-02T04:04:08.744Z,11.20
2018-10-02T04:06:35.932Z,11.53
2018-10-02T04:09:04.878Z,5.37
2018-10-02T04:11:32.017Z,9.60
2018-10-02T04:13:59.159Z,7.80
2018-10-02T04:16:26.269Z,8.97
2018-10-02T04:18:53.420Z,5.30
2018-10-02T04:21:32.141Z,6.30
2018-10-02T04:23:59.245Z,7.03
2018-10-02T04:26:26.500Z,7.23
2018-10-02T04:28:53.668Z,9.90
2018-10-02T04:31:20.784Z,6.60
2018-10-02T04:33:47.973Z,7.90
2018-10-02T04:36:15.068Z,7.30
2018-10-02T04:38:42.229Z,7.60
2018-10-02T04:41:09.460Z,9.87
2018-10-02T04:43:36.732Z,9.13
2018-10-02T04:46:04.021Z,10.00
2018-10-02T04:48:31.152Z,9.63
2018-10-02T04:50:58.437Z,9.20
2018-10-02T04:53:25.589Z,9.20
2018-10-02T04:55:52.877Z,9.77
2018-10-02T04:58:20.036Z,7.63
2018-10-02T05:00:47.140Z,9.77
2018-10-02T05:03:14.383Z,10.50
2018-10-02T05:05:41.580Z,13.40
2018-10-02T05:08:08.745Z,12.67
2018-10-02T05:10:35.911Z,12.00
2018-10-02T05:13:03.201Z,11.10
2018-10-02T05:15:30.328Z,12.97
2018-10-02T05:17:57.565Z,14.47
2018-10-02T05:20:24.836Z,13.57
2018-10-02T05:22:53.089Z,10.00
2018-10-02T05:25:20.256Z,14.37
2018-10-02T05:27:47.550Z,13.90
2018-10-02T05:30:14.703Z,12.93
2018-10-02T05:32:41.863Z,11.50
2018-10-02T05:35:09.113Z,12.47
2018-10-02T05:37:36.169Z,9.57
2018-10-02T05:40:04.109Z,12.53
2018-10-02T05:42:31.266Z,12.80
2018-10-02T05:44:58.380Z,12.30
2018-10-02T05:47:25.514Z,11.47
2018-10-02T05:49:52.667Z,8.87
2018-10-02T05:52:19.797Z,11.93
2018-10-02T05:54:46.915Z,11.33
2018-10-02T05:57:14.179Z,9.33
2018-10-02T05:59:41.303Z,9.47
2018-10-02T06:02:08.526Z,10.33
2018-10-02T06:04:35.717Z,11.30
2018-10-02T06:07:02.926Z,13.60
2018-10-02T06:09:30.109Z,10.63
2018-10-02T06:11:57.316Z,10.43
2018-10-02T06:14:24.591Z,10.30
2018-10-02T06:16:51.793Z,10.20
2018-10-02T06:19:18.992Z,8.00
2018-10-02T06:21:46.271Z,11.10
2018-10-02T06:24:13.436Z,7.03
2018-10-02T06:26:40.840Z,13.70
2018-10-02T06:29:08.090Z,8.50
2018-10-02T06:31:35.234Z,7.77
2018-10-02T06:34:02.438Z,9.23
2018-10-02T06:36:29.553Z,8.40
2018-10-02T06:38:56.719Z,10.00
2018-10-02T06:41:24.518Z,11.00
2018-10-02T06:43:51.664Z,6.90
2018-10-02T06:46:18.901Z,7.90
2018-10-02T06:48:46.033Z,10.33
2018-10-02T06:51:13.293Z,10.03
2018-10-02T06:53:40.369Z,9.23
2018-10-02T06:56:07.617Z,7.23
2018-10-02T06:58:34.761Z,8.50
2018-10-02T07:01:01.860Z,7.37
2018-10-02T07:03:29.894Z,8.33
2018-10-02T07:05:57.032Z,8.30
2018-10-02T07:08:24.202Z,9.80
2018-10-02T07:10:51.429Z,10.53
2018-10-02T07:13:18.528Z,6.27
2018-10-02T07:15:45.752Z,9.13
2018-10-02T07:18:12.901Z,8.53
2018-10-02T07:20:40.084Z,7.83
2018-10-02T07:23:07.189Z,8.63
2018-10-02T07:25:34.330Z,8.00
2018-10-02T07:28:01.579Z,10.37
2018-10-02T07:30:28.624Z,10.33
2018-10-02T07:32:55.899Z,7.17
2018-10-02T07:35:23.109Z,9.10
2018-10-02T07:37:50.207Z,7.63
2018-10-02T07:40:17.421Z,6.53
2018-10-02T07:42:44.567Z,7.17
2018-10-02T07:45:11.694Z,10.93
2018-10-02T07:47:38.884Z,10.97
2018-10-02T07:50:06.076Z,10.20
2018-10-02T07:52:33.178Z,7.07
2018-10-02T07:55:00.328Z,6.00
2018-10-02T07:57:27.541Z,9.30
2018-10-02T07:59:54.666Z,9.67
2018-10-02T08:02:21.948Z,8.40
2018-10-02T08:04:49.098Z,9.73
2018-10-02T08:07:16.140Z,10.03
2018-10-02T08:09:43.361Z,9.63
2018-10-02T08:12:10.523Z,7.33
2018-10-02T08:14:37.618Z,8.13
2018-10-02T08:17:04.793Z,6.33
2018-10-02T08:19:31.940Z,10.07
2018-10-02T08:21:59.089Z,5.30
2018-10-02T08:24:26.325Z,7.50
2018-10-02T08:26:53.477Z,7.03
2018-10-02T08:29:20.710Z,10.03
2018-10-02T08:31:47.901Z,9.43
2018-10-02T08:34:15.024Z,5.53
2018-10-02T08:36:42.256Z,8.27
2018-10-02T08:39:10.216Z,9.67
2018-10-02T08:41:37.688Z,8.50
2018-10-02T08:44:04.860Z,10.17
2018-10-02T08:46:32.029Z,7.90
2018-10-02T08:48:59.175Z,9.53
2018-10-02T08:51:26.286Z,6.13
2018-10-02T08:53:53.508Z,9.53
2018-10-02T08:56:20.599Z,7.43
2018-10-02T08:58:47.720Z,7.00
2018-10-02T09:01:14.902Z,8.60
2018-10-02T09:03:42.132Z,10.23
2018-10-02T09:06:09.255Z,5.73
2018-10-02T09:08:36.488Z,6.40
2018-10-02T09:11:03.607Z,10.37
2018-10-02T09:13:30.747Z,5.73
2018-10-02T09:15:58.255Z,6.50
2018-10-02T09:18:25.443Z,9.37
2018-10-02T09:20:52.990Z,9.03
2018-10-02T09:23:20.295Z,6.93
2018-10-02T09:25:47.505Z,6.90
2018-10-02T09:28:14.649Z,7.90
2018-10-02T09:30:47.649Z,7.33
2018-10-02T09:33:20.442Z,8.70
2018-10-02T09:35:54.141Z,5.23
2018-10-02T09:38:27.013Z,6.83
2018-10-02T09:40:59.932Z,6.90
2018-10-02T09:43:31.749Z,8.73
2018-10-02T09:45:59.413Z,8.87
2018-10-02T09:48:26.754Z,8.90
2018-10-02T09:50:53.978Z,7.80
2018-10-02T09:53:21.140Z,6.33
2018-10-02T09:55:48.328Z,7.73
2018-10-02T09:58:15.452Z,4.43
2018-10-02T10:00:48.470Z,6.63
2018-10-02T10:03:15.540Z,7.03
2018-10-02T10:05:42.665Z,7.37
2018-10-02T10:08:09.858Z,6.10
2018-10-02T10:10:37.072Z,8.90
2018-10-02T10:13:04.184Z,9.00
2018-10-02T10:15:31.471Z,5.83
2018-10-02T10:17:58.740Z,7.87
2018-10-02T10:20:25.942Z,6.63
2018-10-02T10:22:53.299Z,7.30
2018-10-02T10:25:20.456Z,6.43
2018-10-02T10:27:47.725Z,7.03
2018-10-02T10:30:15.011Z,8.97
2018-10-02T10:32:42.257Z,6.23
2018-10-02T10:35:09.455Z,9.33
2018-10-02T10:37:36.679Z,7.50
2018-10-02T10:40:03.945Z,7.93
2018-10-02T10:42:31.149Z,6.97
2018-10-02T10:44:58.401Z,8.33
2018-10-02T10:47:25.556Z,6.30
2018-10-02T10:49:52.749Z,5.90
2018-10-02T10:52:19.954Z,6.03
2018-10-02T10:54:59.609Z,5.90
2018-10-02T10:57:26.773Z,6.07
2018-10-02T10:59:53.909Z,9.97
2018-10-02T11:02:21.073Z,6.80
2018-10-02T11:04:48.371Z,9.00
2018-10-02T11:07:15.517Z,4.73
2018-10-02T11:09:42.659Z,6.47
2018-10-02T11:12:09.887Z,5.80
2018-10-02T11:14:37.028Z,6.77
2018-10-02T11:17:04.163Z,5.03
2018-10-02T11:19:31.553Z,4.57
2018-10-02T11:21:58.638Z,7.23
2018-10-02T11:24:25.809Z,8.50
2018-10-02T11:26:53.001Z,9.87
2018-10-02T11:29:20.258Z,6.10
2018-10-02T11:31:47.447Z,8.47
2018-10-02T11:34:14.644Z,6.60
2018-10-02T11:36:41.767Z,6.90
2018-10-02T11:39:09.134Z,7.10
2018-10-02T11:41:36.377Z,7.30
2018-10-02T11:44:03.551Z,7.40
2018-10-02T11:46:30.643Z,6.13
2018-10-02T11:48:57.893Z,5.60
2018-10-02T11:51:25.020Z,7.20
2018-10-02T11:53:52.129Z,5.73
2018-10-02T11:56:19.285Z,10.57
2018-10-02T11:58:46.446Z,5.93
2018-10-02T12:01:13.916Z,7.07
2018-10-02T12:03:41.034Z,7.47
2018-10-02T12:06:08.158Z,5.23
2018-10-02T12:08:35.270Z,6.93
2018-10-02T12:11:02.786Z,5.73
2018-10-02T12:13:30.061Z,7.03
2018-10-02T12:15:57.069Z,5.77
2018-10-02T12:18:24.361Z,5.13
2018-10-02T12:20:51.476Z,6.93
2018-10-02T12:23:18.582Z,7.37
2018-10-02T12:25:47.136Z,3.70
2018-10-02T12:28:14.256Z,4.73
2018-10-02T12:30:41.411Z,4.80
2018-10-02T12:33:09.137Z,5.00
2018-10-02T12:35:36.352Z,5.03
2018-10-02T12:38:03.513Z,4.17
2018-10-02T12:40:30.772Z,5.50
2018-10-02T12:42:58.013Z,6.57
2018-10-02T12:45:25.120Z,3.90
2018-10-02T12:47:53.049Z,5.03
2018-10-02T12:50:20.419Z,3.67
2018-10-02T12:52:47.639Z,6.40
2018-10-02T12:55:15.167Z,3.73
2018-10-02T12:57:42.274Z,4.13
2018-10-02T13:00:09.437Z,4.10
2018-10-02T13:02:36.640Z,5.03
2018-10-02T13:05:03.778Z,8.10
2018-10-02T13:07:30.891Z,5.43
2018-10-02T13:09:58.094Z,6.83
2018-10-02T13:12:25.170Z,6.57
2018-10-02T13:14:52.343Z,5.80
2018-10-02T13:17:19.571Z,4.97
2018-10-02T13:19:46.793Z,5.60
2018-10-02T13:22:14.217Z,5.13
2018-10-02T13:24:41.403Z,7.90
2018-10-02T13:27:08.468Z,7.53
2018-10-02T13:29:35.570Z,3.90
2018-10-02T13:32:02.830Z,4.77
2018-10-02T13:34:29.985Z,5.20
2018-10-02T13:36:57.117Z,6.10
2018-10-02T13:39:24.265Z,4.90
2018-10-02T13:41:51.408Z,5.87
2018-10-02T13:44:18.499Z,4.77
2018-10-02T13:46:45.665Z,5.80
2018-10-02T13:49:12.808Z,6.13
2018-10-02T13:51:40.061Z,5.10
2018-10-02T13:54:07.213Z,5.90
2018-10-02T13:56:34.312Z,5.37
2018-10-02T13:59:01.461Z,4.40
2018-10-02T14:01:28.667Z,5.23
2018-10-02T14:03:55.744Z,4.87
2018-10-02T14:06:22.852Z,5.67
2018-10-02T14:08:50.004Z,5.67
2018-10-02T14:11:17.184Z,4.80
2018-10-02T14:13:44.301Z,5.27
2018-10-02T14:16:11.522Z,5.13
2018-10-02T14:18:38.735Z,5.13
2018-10-02T14:21:05.961Z,4.80
2018-10-02T14:23:33.192Z,5.97
2018-10-02T14:26:00.282Z,5.67
2018-10-02T14:28:27.436Z,6.57
2018-10-02T14:30:54.575Z,5.77
2018-10-02T14:33:21.745Z,5.93
2018-10-02T14:35:48.869Z,5.27
2018-10-02T14:38:16.026Z,4.87
2018-10-02T14:40:43.140Z,5.77
2018-10-02T14:43:10.359Z,4.03
2018-10-02T14:45:37.520Z,6.40
2018-10-02T14:48:04.706Z,5.37
2018-10-02T14:50:31.831Z,3.93
2018-10-02T14:52:59.054Z,5.00
2018-10-02T14:55:26.206Z,5.70
2018-10-02T14:57:53.323Z,4.47
2018-10-02T15:00:20.709Z,4.70
2018-10-02T15:02:48.240Z,4.03
2018-10-02T15:05:15.404Z,4.97
2018-10-02T15:07:42.632Z,8.00
2018-10-02T15:10:09.766Z,4.27
2018-10-02T15:12:36.883Z,4.63
2018-10-02T15:15:04.296Z,4.53
2018-10-02T15:17:31.384Z,4.97
2018-10-02T15:19:58.553Z,4.90
2018-10-02T15:22:25.853Z,7.87
2018-10-02T15:24:52.940Z,4.57
2018-10-02T15:27:20.136Z,5.43
2018-10-02T15:29:47.468Z,4.87
2018-10-02T15:32:15.940Z,5.60
2018-10-02T15:34:43.145Z,6.30
2018-10-02T15:37:10.368Z,6.67
2018-10-02T15:39:37.584Z,6.57
2018-10-02T15:42:04.700Z,5.87
2018-10-02T15:44:31.958Z,7.03
2018-10-02T15:46:59.053Z,6.90
2018-10-02T15:49:26.352Z,8.30
2018-10-02T15:51:53.479Z,7.17
2018-10-02T15:54:20.593Z,6.03
2018-10-02T15:56:47.795Z,6.10
2018-10-02T15:59:14.929Z,8.80
2018-10-02T16:01:42.065Z,5.87
2018-10-02T16:04:09.172Z,8.40
2018-10-02T16:06:36.447Z,5.97
2018-10-02T16:09:06.160Z,5.87
2018-10-02T16:11:33.302Z,6.53
2018-10-02T16:14:00.544Z,5.57
2018-10-02T16:16:27.757Z,6.03
2018-10-02T16:18:55.021Z,6.97
2018-10-02T16:21:22.331Z,5.47
2018-10-02T16:23:49.560Z,5.23
2018-10-02T16:26:16.874Z,6.13
2018-10-02T16:28:44.092Z,6.00
2018-10-02T16:31:11.506Z,4.53
2018-10-02T16:33:38.781Z,6.03
2018-10-02T16:36:06.125Z,5.23
2018-10-02T16:38:34.336Z,4.00
2018-10-02T16:41:01.429Z,5.60
2018-10-02T16:43:28.684Z,3.73
2018-10-02T16:45:55.838Z,3.77
2018-10-02T16:48:23.027Z,3.23
2018-10-02T16:50:50.466Z,4.60
2018-10-02T16:53:17.573Z,3.87
2018-10-02T16:55:44.696Z,3.73
2018-10-02T16:58:11.993Z,3.43
2018-10-02T17:00:39.248Z,4.10
2018-10-02T17:03:06.383Z,3.87
2018-10-02T17:05:33.883Z,4.33
2018-10-02T17:08:01.053Z,3.50
2018-10-02T17:10:28.174Z,4.27
2018-10-02T17:12:55.457Z,3.60
2018-10-02T17:15:22.595Z,3.73
2018-10-02T17:17:49.782Z,3.90
2018-10-02T17:20:16.966Z,3.47
2018-10-02T17:22:44.552Z,4.30
2018-10-02T17:25:11.909Z,4.00
2018-10-02T17:27:41.760Z,4.43
2018-10-02T17:30:08.932Z,3.70
2018-10-02T17:32:36.141Z,13.03
2018-10-02T17:35:03.385Z,5.87
2018-10-02T17:37:30.528Z,5.10
2018-10-02T17:39:59.502Z,5.83
2018-10-02T17:42:26.785Z,4.83
2018-10-02T17:44:53.872Z,4.20
2018-10-02T17:47:21.077Z,4.10
2018-10-02T17:49:48.212Z,4.47
2018-10-02T17:52:15.288Z,4.67
2018-10-02T17:54:42.540Z,5.33
2018-10-02T17:57:09.684Z,5.60
2018-10-02T17:59:36.760Z,4.63
2018-10-02T18:02:03.872Z,5.90
2018-10-02T18:04:31.155Z,5.93
2018-10-02T18:06:58.279Z,5.73
2018-10-02T18:09:25.348Z,5.60
2018-10-02T18:11:52.546Z,5.77
2018-10-02T18:14:19.703Z,6.80
2018-10-02T18:16:46.812Z,5.50
2018-10-02T18:19:13.998Z,5.80
2018-10-02T18:21:41.099Z,5.53
2018-10-02T18:24:08.211Z,5.90
2018-10-02T18:26:35.365Z,5.13
2018-10-02T18:29:02.495Z,7.90
2018-10-02T18:31:29.577Z,5.93
2018-10-02T18:33:56.824Z,4.93
2018-10-02T18:36:23.910Z,6.00
2018-10-02T18:38:51.073Z,5.40
2018-10-02T18:41:18.208Z,5.27
2018-10-02T18:43:45.304Z,6.47
2018-10-02T18:46:12.387Z,6.57
2018-10-02T18:48:39.748Z,6.47
2018-10-02T18:51:06.783Z,6.43
2018-10-02T18:53:33.993Z,7.60
2018-10-02T18:56:01.302Z,6.17
2018-10-02T18:58:28.364Z,6.07
2018-10-02T19:00:55.452Z,6.30
2018-10-02T19:03:22.580Z,6.83
2018-10-02T19:05:49.680Z,6.23
2018-10-02T19:08:21.344Z,5.43
2018-10-02T19:10:48.597Z,6.03
2018-10-02T19:13:15.738Z,6.77
2018-10-02T19:16:51.146Z,6.27
2018-10-02T19:19:25.019Z,6.87
2018-10-02T19:21:52.297Z,7.43
2018-10-02T19:24:19.532Z,7.07
2018-10-02T19:26:46.797Z,8.23
2018-10-02T19:29:13.936Z,7.57
2018-10-02T19:31:46.880Z,7.53
2018-10-02T19:34:14.016Z,7.93
2018-10-02T19:36:41.168Z,7.33
2018-10-02T19:39:11.040Z,8.17
2018-10-02T19:41:38.166Z,8.40
2018-10-02T19:44:05.297Z,8.10
2018-10-02T19:46:38.176Z,8.77
2018-10-02T19:49:05.296Z,8.30
2018-10-02T19:51:38.053Z,8.37
2018-10-02T19:54:05.176Z,8.17
2018-10-02T19:56:32.309Z,8.20
2018-10-02T19:58:59.431Z,8.17
2018-10-02T20:01:26.522Z,9.43
2018-10-02T20:03:53.603Z,8.90
2018-10-02T20:06:20.757Z,8.33
2018-10-02T20:08:47.913Z,8.97
2018-10-02T20:11:15.017Z,8.70
2018-10-02T20:13:42.216Z,9.10
2018-10-02T20:16:09.305Z,9.57
2018-10-02T20:18:36.556Z,9.97
2018-10-02T20:21:03.744Z,9.70
2018-10-02T20:23:30.856Z,9.13
2018-10-02T20:25:58.069Z,9.73
2018-10-02T20:28:25.224Z,10.60
2018-10-02T20:30:52.329Z,9.70
2018-10-02T20:33:19.502Z,11.23
2018-10-02T20:35:46.656Z,12.50
2018-10-02T20:38:13.809Z,9.27
2018-10-02T20:40:40.972Z,8.43
2018-10-02T20:43:08.141Z,11.40
2018-10-02T20:45:35.230Z,9.23
2018-10-02T20:48:02.413Z,8.20
2018-10-02T20:50:29.569Z,10.73
2018-10-02T20:52:56.656Z,8.13
2018-10-02T20:55:23.785Z,8.67
2018-10-02T20:57:51.049Z,10.30
2018-10-02T21:00:18.271Z,12.43
2018-10-02T21:02:45.436Z,11.60
2018-10-02T21:05:12.609Z,14.07
2018-10-02T21:07:39.696Z,13.33
2018-10-02T21:10:06.833Z,11.90
2018-10-02T21:12:34.045Z,10.73
2018-10-02T21:15:01.177Z,15.97
2018-10-02T21:17:28.609Z,12.00
2018-10-02T21:19:55.958Z,11.13
2018-10-02T21:22:23.175Z,14.23
2018-10-02T21:24:50.388Z,10.23
2018-10-02T21:27:17.662Z,12.07
2018-10-02T21:29:45.002Z,11.40
2018-10-02T21:32:12.241Z,17.63
2018-10-02T21:34:39.552Z,17.73
2018-10-02T21:37:06.794Z,17.03
2018-10-02T21:39:34.060Z,14.53
2018-10-02T21:42:01.411Z,13.30
2018-10-02T21:44:28.671Z,13.47
2018-10-02T21:46:55.898Z,10.57
2018-10-02T21:49:23.243Z,12.43
2018-10-02T21:51:50.615Z,12.70
2018-10-02T21:54:18.880Z,10.77
2018-10-02T21:56:46.289Z,11.80
2018-10-02T21:59:16.817Z,11.23
2018-10-02T22:01:45.607Z,12.97
2018-10-02T22:04:13.527Z,10.67
2018-10-02T22:06:41.097Z,14.57
2018-10-02T22:09:10.222Z,10.60
2018-10-02T22:11:37.957Z,10.33
2018-10-02T22:14:07.184Z,13.03
2018-10-02T22:16:36.329Z,13.63
2018-10-02T22:19:06.337Z,13.73
2018-10-02T22:21:37.691Z,14.10
2018-10-02T22:24:06.162Z,12.00
2018-10-02T22:26:34.329Z,17.47
2018-10-02T22:29:02.882Z,12.97
2018-10-02T22:31:31.481Z,11.97
2018-10-02T22:33:59.294Z,16.97
2018-10-02T22:36:26.711Z,17.30
2018-10-02T22:38:56.105Z,13.17
2018-10-02T22:41:24.512Z,16.30
2018-10-02T22:43:53.590Z,13.77
2018-10-02T22:46:22.207Z,15.50
2018-10-02T22:48:53.585Z,18.87
2018-10-02T22:51:22.106Z,15.33
2018-10-02T22:53:51.266Z,13.17
2018-10-02T22:56:19.151Z,13.37
2018-10-02T22:58:57.697Z,19.67
2018-10-02T23:01:24.915Z,15.67
2018-10-02T23:03:52.103Z,17.87
2018-10-02T23:06:19.346Z,14.17
2018-10-02T23:08:46.576Z,15.50
2018-10-02T23:11:13.758Z,14.97
2018-10-02T23:13:41.105Z,13.10
2018-10-02T23:16:08.301Z,13.53
2018-10-02T23:18:35.489Z,13.90
2018-10-02T23:21:02.734Z,17.73
2018-10-02T23:23:41.846Z,22.23
2018-10-02T23:26:09.310Z,18.03
2018-10-02T23:28:37.089Z,14.73
2018-10-02T23:31:04.321Z,15.83
2018-10-02T23:33:31.641Z,15.97
2018-10-02T23:35:58.953Z,16.87
2018-10-02T23:38:26.376Z,12.17
2018-10-02T23:40:53.693Z,18.50
2018-10-02T23:43:20.969Z,17.37
2018-10-02T23:45:48.286Z,19.30
2018-10-02T23:48:15.697Z,16.83
2018-10-02T23:50:42.922Z,15.17
2018-10-02T23:53:10.326Z,16.40
2018-10-02T23:55:45.809Z,15.33
2018-10-02T23:58:13.298Z,16.73
